sensor_id;sensor_type;location;lat;lon;timestamp;P1;durP1;ratioP1;P2;durP2;ratioP2
13927;SDS011;7036;50.834;4.718;2022-09-21T00:00:46;1.83;;;1.30;;
13927;SDS011;7036;50.834;4.718;2022-09-21T00:03:13;1.37;;;1.07;;
13927;SDS011;7036;50.834;4.718;2022-09-21T00:05:41;1.40;;;1.10;;
13927;SDS011;7036;50.834;4.718;2022-09-21T00:08:09;1.40;;;1.17;;
13927;SDS011;7036;50.834;4.718;2022-09-21T00:10:35;1.67;;;1.30;;
13927;SDS011;7036;50.834;4.718;2022-09-21T00:13:03;1.48;;;1.38;;
13927;SDS011;7036;50.834;4.718;2022-09-21T00:15:31;4.28;;;1.40;;
13927;SDS011;7036;50.834;4.718;2022-09-21T00:17:58;1.42;;;1.10;;
13927;SDS011;7036;50.834;4.718;2022-09-21T00:20:26;3.17;;;1.40;;
13927;SDS011;7036;50.834;4.718;2022-09-21T00:22:53;1.85;;;1.30;;
13927;SDS011;7036;50.834;4.718;2022-09-21T00:25:21;1.50;;;1.30;;
13927;SDS011;7036;50.834;4.718;2022-09-21T00:27:48;2.13;;;1.40;;
13927;SDS011;7036;50.834;4.718;2022-09-21T00:30:16;1.90;;;1.02;;
13927;SDS011;7036;50.834;4.718;2022-09-21T00:32:43;3.67;;;1.60;;
13927;SDS011;7036;50.834;4.718;2022-09-21T00:35:10;1.77;;;1.15;;
13927;SDS011;7036;50.834;4.718;2022-09-21T00:37:38;2.00;;;1.20;;
13927;SDS011;7036;50.834;4.718;2022-09-21T00:40:06;1.77;;;1.38;;
13927;SDS011;7036;50.834;4.718;2022-09-21T00:42:34;1.42;;;1.25;;
13927;SDS011;7036;50.834;4.718;2022-09-21T00:45:02;3.33;;;1.50;;
13927;SDS011;7036;50.834;4.718;2022-09-21T00:47:42;1.30;;;1.20;;
13927;SDS011;7036;50.834;4.718;2022-09-21T00:50:09;2.80;;;1.40;;
13927;SDS011;7036;50.834;4.718;2022-09-21T00:52:37;1.40;;;1.20;;
13927;SDS011;7036;50.834;4.718;2022-09-21T00:55:05;1.80;;;1.40;;
13927;SDS011;7036;50.834;4.718;2022-09-21T00:57:31;1.98;;;1.40;;
13927;SDS011;7036;50.834;4.718;2022-09-21T01:00:00;2.10;;;1.20;;
13927;SDS011;7036;50.834;4.718;2022-09-21T01:02:27;1.23;;;1.13;;
13927;SDS011;7036;50.834;4.718;2022-09-21T01:04:54;1.65;;;1.45;;
13927;SDS011;7036;50.834;4.718;2022-09-21T01:07:23;2.00;;;1.35;;
13927;SDS011;7036;50.834;4.718;2022-09-21T01:09:50;2.25;;;1.35;;
13927;SDS011;7036;50.834;4.718;2022-09-21T01:21:07;1.77;;;1.17;;
13927;SDS011;7036;50.834;4.718;2022-09-21T01:23:53;1.67;;;1.30;;
13927;SDS011;7036;50.834;4.718;2022-09-21T01:26:37;1.40;;;0.90;;
13927;SDS011;7036;50.834;4.718;2022-09-21T01:32:19;1.50;;;1.10;;
13927;SDS011;7036;50.834;4.718;2022-09-21T01:35:31;1.30;;;1.10;;
13927;SDS011;7036;50.834;4.718;2022-09-21T01:37:17;1.65;;;1.55;;
13927;SDS011;7036;50.834;4.718;2022-09-21T01:39:43;1.33;;;1.23;;
13927;SDS011;7036;50.834;4.718;2022-09-21T01:42:10;1.33;;;1.23;;
13927;SDS011;7036;50.834;4.718;2022-09-21T01:44:37;2.13;;;1.40;;
13927;SDS011;7036;50.834;4.718;2022-09-21T01:47:06;1.95;;;1.50;;
13927;SDS011;7036;50.834;4.718;2022-09-21T01:49:34;1.67;;;1.30;;
13927;SDS011;7036;50.834;4.718;2022-09-21T01:52:47;2.03;;;1.67;;
13927;SDS011;7036;50.834;4.718;2022-09-21T01:54:38;1.50;;;1.30;;
13927;SDS011;7036;50.834;4.718;2022-09-21T01:57:06;3.07;;;1.77;;
13927;SDS011;7036;50.834;4.718;2022-09-21T01:59:39;2.70;;;1.33;;
13927;SDS011;7036;50.834;4.718;2022-09-21T02:02:12;1.90;;;1.40;;
13927;SDS011;7036;50.834;4.718;2022-09-21T02:04:40;3.83;;;1.13;;
13927;SDS011;7036;50.834;4.718;2022-09-21T02:07:08;0.82;;;0.73;;
13927;SDS011;7036;50.834;4.718;2022-09-21T02:09:35;1.45;;;1.35;;
13927;SDS011;7036;50.834;4.718;2022-09-21T02:12:02;1.13;;;1.00;;
13927;SDS011;7036;50.834;4.718;2022-09-21T02:14:30;1.90;;;1.42;;
13927;SDS011;7036;50.834;4.718;2022-09-21T02:17:03;2.17;;;1.60;;
13927;SDS011;7036;50.834;4.718;2022-09-21T02:19:41;1.60;;;1.40;;
13927;SDS011;7036;50.834;4.718;2022-09-21T02:22:30;1.60;;;1.10;;
13927;SDS011;7036;50.834;4.718;2022-09-21T02:25:14;2.10;;;1.33;;
13927;SDS011;7036;50.834;4.718;2022-09-21T02:30:18;1.40;;;1.30;;
13927;SDS011;7036;50.834;4.718;2022-09-21T02:32:44;1.13;;;1.00;;
13927;SDS011;7036;50.834;4.718;2022-09-21T02:35:22;1.57;;;1.20;;
13927;SDS011;7036;50.834;4.718;2022-09-21T02:37:54;1.87;;;1.20;;
13927;SDS011;7036;50.834;4.718;2022-09-21T02:42:46;2.43;;;1.40;;
13927;SDS011;7036;50.834;4.718;2022-09-21T02:45:18;1.77;;;1.33;;
13927;SDS011;7036;50.834;4.718;2022-09-21T02:47:42;1.63;;;1.30;;
13927;SDS011;7036;50.834;4.718;2022-09-21T02:50:17;2.73;;;1.50;;
13927;SDS011;7036;50.834;4.718;2022-09-21T02:52:43;1.63;;;1.40;;
13927;SDS011;7036;50.834;4.718;2022-09-21T02:55:09;1.50;;;1.20;;
13927;SDS011;7036;50.834;4.718;2022-09-21T02:57:36;1.73;;;1.40;;
13927;SDS011;7036;50.834;4.718;2022-09-21T03:00:04;2.42;;;1.40;;
13927;SDS011;7036;50.834;4.718;2022-09-21T03:02:38;1.98;;;1.40;;
13927;SDS011;7036;50.834;4.718;2022-09-21T03:05:04;2.30;;;1.37;;
13927;SDS011;7036;50.834;4.718;2022-09-21T03:07:32;2.45;;;1.50;;
13927;SDS011;7036;50.834;4.718;2022-09-21T03:09:59;2.30;;;1.75;;
13927;SDS011;7036;50.834;4.718;2022-09-21T03:12:26;1.67;;;1.30;;
13927;SDS011;7036;50.834;4.718;2022-09-21T03:14:54;1.30;;;1.17;;
13927;SDS011;7036;50.834;4.718;2022-09-21T03:17:22;2.90;;;1.30;;
13927;SDS011;7036;50.834;4.718;2022-09-21T03:19:49;1.83;;;1.27;;
13927;SDS011;7036;50.834;4.718;2022-09-21T03:22:17;1.50;;;1.38;;
13927;SDS011;7036;50.834;4.718;2022-09-21T03:24:44;3.13;;;1.52;;
13927;SDS011;7036;50.834;4.718;2022-09-21T03:27:14;1.45;;;1.30;;
13927;SDS011;7036;50.834;4.718;2022-09-21T03:29:39;3.00;;;1.60;;
13927;SDS011;7036;50.834;4.718;2022-09-21T03:32:06;1.40;;;1.30;;
13927;SDS011;7036;50.834;4.718;2022-09-21T03:34:33;1.60;;;1.50;;
13927;SDS011;7036;50.834;4.718;2022-09-21T03:37:01;1.80;;;1.20;;
13927;SDS011;7036;50.834;4.718;2022-09-21T03:39:28;2.58;;;1.77;;
13927;SDS011;7036;50.834;4.718;2022-09-21T03:41:56;2.75;;;1.65;;
13927;SDS011;7036;50.834;4.718;2022-09-21T03:44:24;2.38;;;1.40;;
13927;SDS011;7036;50.834;4.718;2022-09-21T03:46:52;1.45;;;1.35;;
13927;SDS011;7036;50.834;4.718;2022-09-21T03:49:19;1.13;;;1.02;;
13927;SDS011;7036;50.834;4.718;2022-09-21T03:51:46;2.20;;;1.50;;
13927;SDS011;7036;50.834;4.718;2022-09-21T03:54:13;1.30;;;1.20;;
13927;SDS011;7036;50.834;4.718;2022-09-21T03:56:41;2.17;;;1.42;;
13927;SDS011;7036;50.834;4.718;2022-09-21T03:59:08;1.80;;;1.42;;
13927;SDS011;7036;50.834;4.718;2022-09-21T04:01:35;1.38;;;1.27;;
13927;SDS011;7036;50.834;4.718;2022-09-21T04:04:02;1.52;;;1.42;;
13927;SDS011;7036;50.834;4.718;2022-09-21T04:06:30;1.40;;;1.30;;
13927;SDS011;7036;50.834;4.718;2022-09-21T04:08:58;2.80;;;1.40;;
13927;SDS011;7036;50.834;4.718;2022-09-21T04:11:25;1.65;;;1.50;;
13927;SDS011;7036;50.834;4.718;2022-09-21T04:13:52;1.48;;;1.38;;
13927;SDS011;7036;50.834;4.718;2022-09-21T04:16:22;2.40;;;1.35;;
13927;SDS011;7036;50.834;4.718;2022-09-21T04:18:50;2.40;;;1.40;;
13927;SDS011;7036;50.834;4.718;2022-09-21T04:21:18;1.50;;;1.40;;
13927;SDS011;7036;50.834;4.718;2022-09-21T04:23:45;1.75;;;1.45;;
13927;SDS011;7036;50.834;4.718;2022-09-21T04:26:19;1.50;;;1.40;;
13927;SDS011;7036;50.834;4.718;2022-09-21T04:28:45;1.30;;;1.20;;
13927;SDS011;7036;50.834;4.718;2022-09-21T04:31:13;2.15;;;1.60;;
13927;SDS011;7036;50.834;4.718;2022-09-21T04:33:41;1.27;;;1.17;;
13927;SDS011;7036;50.834;4.718;2022-09-21T04:36:08;1.23;;;1.17;;
13927;SDS011;7036;50.834;4.718;2022-09-21T04:38:36;2.70;;;1.50;;
13927;SDS011;7036;50.834;4.718;2022-09-21T04:41:04;3.03;;;1.33;;
13927;SDS011;7036;50.834;4.718;2022-09-21T04:43:31;3.58;;;1.85;;
13927;SDS011;7036;50.834;4.718;2022-09-21T04:46:03;1.70;;;1.23;;
13927;SDS011;7036;50.834;4.718;2022-09-21T04:48:26;1.50;;;1.23;;
13927;SDS011;7036;50.834;4.718;2022-09-21T04:50:54;3.80;;;1.35;;
13927;SDS011;7036;50.834;4.718;2022-09-21T04:53:22;1.58;;;1.42;;
13927;SDS011;7036;50.834;4.718;2022-09-21T04:55:50;1.40;;;1.20;;
13927;SDS011;7036;50.834;4.718;2022-09-21T04:58:18;2.13;;;1.55;;
13927;SDS011;7036;50.834;4.718;2022-09-21T05:00:49;2.50;;;1.38;;
13927;SDS011;7036;50.834;4.718;2022-09-21T05:03:16;1.97;;;1.30;;
13927;SDS011;7036;50.834;4.718;2022-09-21T05:05:52;3.10;;;1.13;;
13927;SDS011;7036;50.834;4.718;2022-09-21T05:08:16;2.47;;;1.33;;
13927;SDS011;7036;50.834;4.718;2022-09-21T05:10:44;1.75;;;1.45;;
13927;SDS011;7036;50.834;4.718;2022-09-21T05:13:12;1.52;;;1.42;;
13927;SDS011;7036;50.834;4.718;2022-09-21T05:15:40;2.33;;;1.40;;
13927;SDS011;7036;50.834;4.718;2022-09-21T05:18:08;2.83;;;1.40;;
13927;SDS011;7036;50.834;4.718;2022-09-21T05:20:36;1.60;;;1.45;;
13927;SDS011;7036;50.834;4.718;2022-09-21T05:23:04;1.40;;;1.30;;
13927;SDS011;7036;50.834;4.718;2022-09-21T05:25:32;2.42;;;1.48;;
13927;SDS011;7036;50.834;4.718;2022-09-21T05:27:59;2.30;;;1.73;;
13927;SDS011;7036;50.834;4.718;2022-09-21T05:30:27;1.67;;;1.50;;
13927;SDS011;7036;50.834;4.718;2022-09-21T05:32:55;3.15;;;1.73;;
13927;SDS011;7036;50.834;4.718;2022-09-21T05:35:24;1.67;;;1.50;;
13927;SDS011;7036;50.834;4.718;2022-09-21T05:40:41;2.07;;;1.50;;
13927;SDS011;7036;50.834;4.718;2022-09-21T05:43:08;1.80;;;1.25;;
13927;SDS011;7036;50.834;4.718;2022-09-21T05:45:36;1.65;;;1.48;;
13927;SDS011;7036;50.834;4.718;2022-09-21T05:48:10;2.08;;;1.52;;
13927;SDS011;7036;50.834;4.718;2022-09-21T05:51:01;2.13;;;1.60;;
13927;SDS011;7036;50.834;4.718;2022-09-21T05:53:45;1.70;;;1.60;;
13927;SDS011;7036;50.834;4.718;2022-09-21T06:03:57;1.73;;;1.63;;
13927;SDS011;7036;50.834;4.718;2022-09-21T06:06:26;1.98;;;1.48;;
13927;SDS011;7036;50.834;4.718;2022-09-21T06:08:53;2.37;;;1.57;;
13927;SDS011;7036;50.834;4.718;2022-09-21T06:11:20;1.65;;;1.35;;
13927;SDS011;7036;50.834;4.718;2022-09-21T06:13:48;2.55;;;1.92;;
13927;SDS011;7036;50.834;4.718;2022-09-21T06:16:16;1.83;;;1.70;;
13927;SDS011;7036;50.834;4.718;2022-09-21T06:18:44;1.63;;;1.52;;
13927;SDS011;7036;50.834;4.718;2022-09-21T06:21:12;1.75;;;1.65;;
13927;SDS011;7036;50.834;4.718;2022-09-21T06:23:39;2.78;;;1.73;;
13927;SDS011;7036;50.834;4.718;2022-09-21T06:26:07;1.65;;;1.50;;
13927;SDS011;7036;50.834;4.718;2022-09-21T06:28:36;1.38;;;1.25;;
13927;SDS011;7036;50.834;4.718;2022-09-21T06:31:02;1.60;;;1.50;;
13927;SDS011;7036;50.834;4.718;2022-09-21T06:33:30;2.00;;;1.73;;
13927;SDS011;7036;50.834;4.718;2022-09-21T06:35:58;6.72;;;1.98;;
13927;SDS011;7036;50.834;4.718;2022-09-21T06:38:26;2.25;;;1.80;;
13927;SDS011;7036;50.834;4.718;2022-09-21T06:40:54;5.90;;;2.30;;
13927;SDS011;7036;50.834;4.718;2022-09-21T06:43:21;6.05;;;1.88;;
13927;SDS011;7036;50.834;4.718;2022-09-21T06:45:55;3.33;;;2.08;;
13927;SDS011;7036;50.834;4.718;2022-09-21T06:48:21;10.57;;;2.00;;
13927;SDS011;7036;50.834;4.718;2022-09-21T06:50:48;10.35;;;2.42;;
13927;SDS011;7036;50.834;4.718;2022-09-21T06:53:16;5.32;;;2.60;;
13927;SDS011;7036;50.834;4.718;2022-09-21T06:55:43;3.28;;;1.90;;
13927;SDS011;7036;50.834;4.718;2022-09-21T06:58:10;11.30;;;2.08;;
13927;SDS011;7036;50.834;4.718;2022-09-21T07:00:37;5.40;;;2.00;;
13927;SDS011;7036;50.834;4.718;2022-09-21T07:03:05;8.27;;;2.33;;
13927;SDS011;7036;50.834;4.718;2022-09-21T07:05:32;6.45;;;2.50;;
13927;SDS011;7036;50.834;4.718;2022-09-21T07:08:00;6.25;;;2.50;;
13927;SDS011;7036;50.834;4.718;2022-09-21T07:10:27;8.60;;;2.65;;
13927;SDS011;7036;50.834;4.718;2022-09-21T07:12:55;6.63;;;2.92;;
13927;SDS011;7036;50.834;4.718;2022-09-21T07:15:22;4.05;;;2.22;;
13927;SDS011;7036;50.834;4.718;2022-09-21T07:17:50;6.82;;;2.35;;
13927;SDS011;7036;50.834;4.718;2022-09-21T07:20:18;5.95;;;2.45;;
13927;SDS011;7036;50.834;4.718;2022-09-21T07:22:45;9.30;;;2.60;;
13927;SDS011;7036;50.834;4.718;2022-09-21T07:25:13;6.57;;;3.00;;
13927;SDS011;7036;50.834;4.718;2022-09-21T07:27:41;6.82;;;2.30;;
13927;SDS011;7036;50.834;4.718;2022-09-21T07:30:08;5.75;;;2.40;;
13927;SDS011;7036;50.834;4.718;2022-09-21T07:32:36;7.18;;;2.17;;
13927;SDS011;7036;50.834;4.718;2022-09-21T07:35:04;4.32;;;1.65;;
13927;SDS011;7036;50.834;4.718;2022-09-21T07:37:31;7.20;;;2.70;;
13927;SDS011;7036;50.834;4.718;2022-09-21T07:39:58;11.67;;;2.40;;
13927;SDS011;7036;50.834;4.718;2022-09-21T07:42:26;10.40;;;2.35;;
13927;SDS011;7036;50.834;4.718;2022-09-21T07:44:53;10.73;;;2.55;;
13927;SDS011;7036;50.834;4.718;2022-09-21T07:47:20;6.82;;;2.80;;
13927;SDS011;7036;50.834;4.718;2022-09-21T07:49:47;3.78;;;2.33;;
13927;SDS011;7036;50.834;4.718;2022-09-21T07:52:15;6.95;;;2.05;;
13927;SDS011;7036;50.834;4.718;2022-09-21T07:54:43;4.90;;;2.22;;
13927;SDS011;7036;50.834;4.718;2022-09-21T07:57:10;5.85;;;2.53;;
13927;SDS011;7036;50.834;4.718;2022-09-21T07:59:56;5.43;;;2.33;;
13927;SDS011;7036;50.834;4.718;2022-09-21T08:02:22;4.90;;;2.23;;
13927;SDS011;7036;50.834;4.718;2022-09-21T08:04:50;6.30;;;2.75;;
13927;SDS011;7036;50.834;4.718;2022-09-21T08:07:18;6.40;;;2.45;;
13927;SDS011;7036;50.834;4.718;2022-09-21T08:09:46;6.93;;;2.80;;
13927;SDS011;7036;50.834;4.718;2022-09-21T08:12:14;4.75;;;2.40;;
13927;SDS011;7036;50.834;4.718;2022-09-21T08:14:41;5.82;;;2.35;;
13927;SDS011;7036;50.834;4.718;2022-09-21T08:17:09;6.10;;;2.53;;
13927;SDS011;7036;50.834;4.718;2022-09-21T08:19:37;2.35;;;1.75;;
13927;SDS011;7036;50.834;4.718;2022-09-21T08:22:05;3.25;;;2.10;;
13927;SDS011;7036;50.834;4.718;2022-09-21T08:24:32;3.90;;;2.42;;
13927;SDS011;7036;50.834;4.718;2022-09-21T08:27:00;5.93;;;2.70;;
13927;SDS011;7036;50.834;4.718;2022-09-21T08:29:27;7.15;;;3.55;;
13927;SDS011;7036;50.834;4.718;2022-09-21T08:31:55;7.13;;;3.63;;
13927;SDS011;7036;50.834;4.718;2022-09-21T08:34:22;11.65;;;4.38;;
13927;SDS011;7036;50.834;4.718;2022-09-21T08:36:49;8.63;;;4.50;;
13927;SDS011;7036;50.834;4.718;2022-09-21T08:39:17;11.32;;;4.47;;
13927;SDS011;7036;50.834;4.718;2022-09-21T08:44:37;13.30;;;6.57;;
13927;SDS011;7036;50.834;4.718;2022-09-21T08:47:09;10.20;;;5.63;;
13927;SDS011;7036;50.834;4.718;2022-09-21T08:49:35;14.27;;;5.37;;
13927;SDS011;7036;50.834;4.718;2022-09-21T08:52:03;26.52;;;6.60;;
13927;SDS011;7036;50.834;4.718;2022-09-21T08:57:09;30.47;;;6.23;;
13927;SDS011;7036;50.834;4.718;2022-09-21T08:59:35;25.13;;;6.10;;
13927;SDS011;7036;50.834;4.718;2022-09-21T09:05:11;29.13;;;6.47;;
13927;SDS011;7036;50.834;4.718;2022-09-21T09:10:48;34.50;;;6.80;;
13927;SDS011;7036;50.834;4.718;2022-09-21T09:14:08;38.47;;;8.27;;
13927;SDS011;7036;50.834;4.718;2022-09-21T09:21:10;33.23;;;7.13;;
13927;SDS011;7036;50.834;4.718;2022-09-21T09:23:38;21.60;;;5.65;;
13927;SDS011;7036;50.834;4.718;2022-09-21T09:26:05;31.02;;;6.05;;
13927;SDS011;7036;50.834;4.718;2022-09-21T09:28:33;22.85;;;5.88;;
13927;SDS011;7036;50.834;4.718;2022-09-21T09:31:04;23.45;;;5.82;;
13927;SDS011;7036;50.834;4.718;2022-09-21T09:33:35;24.50;;;5.60;;
13927;SDS011;7036;50.834;4.718;2022-09-21T09:35:57;31.17;;;6.13;;
13927;SDS011;7036;50.834;4.718;2022-09-21T09:38:35;14.75;;;5.15;;
13927;SDS011;7036;50.834;4.718;2022-09-21T09:41:33;20.33;;;4.83;;
13927;SDS011;7036;50.834;4.718;2022-09-21T09:52:18;19.37;;;4.13;;
13927;SDS011;7036;50.834;4.718;2022-09-21T09:54:46;15.60;;;4.22;;
13927;SDS011;7036;50.834;4.718;2022-09-21T09:57:15;17.08;;;4.40;;
13927;SDS011;7036;50.834;4.718;2022-09-21T09:59:42;12.70;;;4.15;;
13927;SDS011;7036;50.834;4.718;2022-09-21T10:02:26;16.10;;;4.07;;
13927;SDS011;7036;50.834;4.718;2022-09-21T10:07:43;11.70;;;3.60;;
13927;SDS011;7036;50.834;4.718;2022-09-21T10:10:23;18.13;;;4.00;;
13927;SDS011;7036;50.834;4.718;2022-09-21T10:12:55;12.50;;;3.13;;
13927;SDS011;7036;50.834;4.718;2022-09-21T10:15:24;14.57;;;3.85;;
13927;SDS011;7036;50.834;4.718;2022-09-21T10:18:04;14.13;;;3.70;;
13927;SDS011;7036;50.834;4.718;2022-09-21T10:20:33;15.03;;;3.67;;
13927;SDS011;7036;50.834;4.718;2022-09-21T10:23:00;11.88;;;3.55;;
13927;SDS011;7036;50.834;4.718;2022-09-21T10:25:27;11.60;;;3.53;;
13927;SDS011;7036;50.834;4.718;2022-09-21T10:27:54;11.02;;;2.80;;
13927;SDS011;7036;50.834;4.718;2022-09-21T10:32:56;7.97;;;3.30;;
13927;SDS011;7036;50.834;4.718;2022-09-21T10:35:23;7.38;;;2.95;;
13927;SDS011;7036;50.834;4.718;2022-09-21T10:38:07;12.98;;;3.63;;
13927;SDS011;7036;50.834;4.718;2022-09-21T10:40:36;9.27;;;3.30;;
13927;SDS011;7036;50.834;4.718;2022-09-21T10:43:03;8.40;;;2.97;;
13927;SDS011;7036;50.834;4.718;2022-09-21T10:45:34;17.80;;;3.60;;
13927;SDS011;7036;50.834;4.718;2022-09-21T10:48:12;9.83;;;2.40;;
13927;SDS011;7036;50.834;4.718;2022-09-21T10:50:37;8.13;;;2.70;;
13927;SDS011;7036;50.834;4.718;2022-09-21T10:53:15;13.53;;;3.47;;
13927;SDS011;7036;50.834;4.718;2022-09-21T10:56:00;9.60;;;2.37;;
13927;SDS011;7036;50.834;4.718;2022-09-21T10:58:28;9.13;;;2.50;;
13927;SDS011;7036;50.834;4.718;2022-09-21T11:00:55;12.13;;;2.73;;
13927;SDS011;7036;50.834;4.718;2022-09-21T11:06:05;9.77;;;2.80;;
13927;SDS011;7036;50.834;4.718;2022-09-21T11:08:32;9.63;;;3.10;;
13927;SDS011;7036;50.834;4.718;2022-09-21T11:13:59;9.17;;;3.37;;
13927;SDS011;7036;50.834;4.718;2022-09-21T11:16:27;9.57;;;2.97;;
13927;SDS011;7036;50.834;4.718;2022-09-21T11:21:41;10.43;;;2.53;;
13927;SDS011;7036;50.834;4.718;2022-09-21T11:26:55;9.10;;;2.17;;
13927;SDS011;7036;50.834;4.718;2022-09-21T11:29:31;11.83;;;3.10;;
13927;SDS011;7036;50.834;4.718;2022-09-21T11:35:01;15.47;;;4.50;;
13927;SDS011;7036;50.834;4.718;2022-09-21T11:40:27;17.37;;;4.83;;
13927;SDS011;7036;50.834;4.718;2022-09-21T11:48:28;15.33;;;5.00;;
13927;SDS011;7036;50.834;4.718;2022-09-21T11:50:57;14.47;;;4.37;;
13927;SDS011;7036;50.834;4.718;2022-09-21T11:53:27;15.47;;;4.33;;
13927;SDS011;7036;50.834;4.718;2022-09-21T11:56:12;8.30;;;3.13;;
13927;SDS011;7036;50.834;4.718;2022-09-21T11:58:50;10.77;;;3.23;;
13927;SDS011;7036;50.834;4.718;2022-09-21T12:02:18;15.30;;;3.53;;
13927;SDS011;7036;50.834;4.718;2022-09-21T12:06:54;10.30;;;2.90;;
13927;SDS011;7036;50.834;4.718;2022-09-21T12:11:56;9.30;;;3.00;;
13927;SDS011;7036;50.834;4.718;2022-09-21T12:14:22;11.37;;;3.23;;
13927;SDS011;7036;50.834;4.718;2022-09-21T12:16:52;17.50;;;3.50;;
13927;SDS011;7036;50.834;4.718;2022-09-21T12:19:22;8.43;;;3.17;;
13927;SDS011;7036;50.834;4.718;2022-09-21T12:21:58;9.27;;;3.67;;
13927;SDS011;7036;50.834;4.718;2022-09-21T12:24:29;12.52;;;3.15;;
13927;SDS011;7036;50.834;4.718;2022-09-21T12:26:57;11.97;;;3.33;;
13927;SDS011;7036;50.834;4.718;2022-09-21T12:29:34;8.88;;;3.17;;
13927;SDS011;7036;50.834;4.718;2022-09-21T12:34:52;12.70;;;3.90;;
13927;SDS011;7036;50.834;4.718;2022-09-21T12:39:53;17.40;;;4.57;;
13927;SDS011;7036;50.834;4.718;2022-09-21T12:44:50;19.17;;;4.50;;
13927;SDS011;7036;50.834;4.718;2022-09-21T12:47:33;10.53;;;4.10;;
13927;SDS011;7036;50.834;4.718;2022-09-21T12:49:57;17.17;;;4.27;;
13927;SDS011;7036;50.834;4.718;2022-09-21T12:52:24;14.50;;;4.22;;
13927;SDS011;7036;50.834;4.718;2022-09-21T12:54:59;20.05;;;4.00;;
13927;SDS011;7036;50.834;4.718;2022-09-21T12:57:37;18.27;;;3.87;;
13927;SDS011;7036;50.834;4.718;2022-09-21T13:02:43;15.43;;;3.50;;
13927;SDS011;7036;50.834;4.718;2022-09-21T13:08:12;11.87;;;4.33;;
13927;SDS011;7036;50.834;4.718;2022-09-21T13:10:47;8.43;;;2.80;;
13927;SDS011;7036;50.834;4.718;2022-09-21T13:15:52;11.02;;;3.83;;
13927;SDS011;7036;50.834;4.718;2022-09-21T13:18:27;13.90;;;3.55;;
13927;SDS011;7036;50.834;4.718;2022-09-21T13:20:52;13.90;;;4.13;;
13927;SDS011;7036;50.834;4.718;2022-09-21T13:23:21;8.50;;;3.53;;
13927;SDS011;7036;50.834;4.718;2022-09-21T13:25:57;10.90;;;3.90;;
13927;SDS011;7036;50.834;4.718;2022-09-21T13:28:18;10.90;;;2.92;;
13927;SDS011;7036;50.834;4.718;2022-09-21T13:30:45;12.13;;;3.67;;
13927;SDS011;7036;50.834;4.718;2022-09-21T13:46:56;9.00;;;3.07;;
13927;SDS011;7036;50.834;4.718;2022-09-21T13:49:03;7.37;;;3.03;;
13927;SDS011;7036;50.834;4.718;2022-09-21T13:51:31;8.87;;;3.23;;
13927;SDS011;7036;50.834;4.718;2022-09-21T13:54:00;6.78;;;2.92;;
13927;SDS011;7036;50.834;4.718;2022-09-21T13:56:27;9.40;;;2.97;;
13927;SDS011;7036;50.834;4.718;2022-09-21T13:58:55;10.32;;;2.95;;
13927;SDS011;7036;50.834;4.718;2022-09-21T14:01:33;11.35;;;3.03;;
13927;SDS011;7036;50.834;4.718;2022-09-21T14:03:59;12.33;;;3.13;;
13927;SDS011;7036;50.834;4.718;2022-09-21T14:06:27;9.73;;;2.85;;
13927;SDS011;7036;50.834;4.718;2022-09-21T14:08:55;9.70;;;3.10;;
13927;SDS011;7036;50.834;4.718;2022-09-21T14:11:22;5.45;;;2.40;;
13927;SDS011;7036;50.834;4.718;2022-09-21T14:14:04;6.55;;;2.70;;
13927;SDS011;7036;50.834;4.718;2022-09-21T14:18:59;7.57;;;2.88;;
13927;SDS011;7036;50.834;4.718;2022-09-21T14:21:26;9.68;;;2.60;;
13927;SDS011;7036;50.834;4.718;2022-09-21T14:24:07;5.25;;;2.45;;
13927;SDS011;7036;50.834;4.718;2022-09-21T14:26:51;7.30;;;2.73;;
13927;SDS011;7036;50.834;4.718;2022-09-21T14:31:51;9.03;;;3.10;;
13927;SDS011;7036;50.834;4.718;2022-09-21T14:34:18;10.65;;;3.40;;
13927;SDS011;7036;50.834;4.718;2022-09-21T14:36:45;14.00;;;4.15;;
13927;SDS011;7036;50.834;4.718;2022-09-21T14:39:16;13.65;;;3.90;;
13927;SDS011;7036;50.834;4.718;2022-09-21T14:41:51;9.10;;;3.23;;
13927;SDS011;7036;50.834;4.718;2022-09-21T14:44:23;19.65;;;3.75;;
13927;SDS011;7036;50.834;4.718;2022-09-21T14:47:49;10.27;;;3.00;;
13927;SDS011;7036;50.834;4.718;2022-09-21T14:52:30;8.30;;;3.00;;
13927;SDS011;7036;50.834;4.718;2022-09-21T15:00:44;13.43;;;3.90;;
13927;SDS011;7036;50.834;4.718;2022-09-21T15:03:17;9.32;;;3.05;;
13927;SDS011;7036;50.834;4.718;2022-09-21T15:05:42;11.53;;;3.50;;
13927;SDS011;7036;50.834;4.718;2022-09-21T15:11:23;11.60;;;3.00;;
13927;SDS011;7036;50.834;4.718;2022-09-21T15:16:33;15.17;;;3.83;;
13927;SDS011;7036;50.834;4.718;2022-09-21T15:21:39;17.38;;;3.63;;
13927;SDS011;7036;50.834;4.718;2022-09-21T15:24:12;10.52;;;3.00;;
13927;SDS011;7036;50.834;4.718;2022-09-21T15:26:35;14.60;;;2.90;;
13927;SDS011;7036;50.834;4.718;2022-09-21T15:29:03;10.73;;;3.28;;
13927;SDS011;7036;50.834;4.718;2022-09-21T15:31:30;11.40;;;3.28;;
13927;SDS011;7036;50.834;4.718;2022-09-21T15:33:58;8.15;;;3.38;;
13927;SDS011;7036;50.834;4.718;2022-09-21T15:36:26;9.35;;;3.22;;
13927;SDS011;7036;50.834;4.718;2022-09-21T15:38:55;9.40;;;3.23;;
13927;SDS011;7036;50.834;4.718;2022-09-21T15:41:44;7.43;;;3.00;;
13927;SDS011;7036;50.834;4.718;2022-09-21T15:43:49;7.60;;;2.83;;
13927;SDS011;7036;50.834;4.718;2022-09-21T15:46:18;10.05;;;3.40;;
13927;SDS011;7036;50.834;4.718;2022-09-21T15:48:45;10.70;;;3.27;;
13927;SDS011;7036;50.834;4.718;2022-09-21T15:53:52;19.63;;;4.53;;
13927;SDS011;7036;50.834;4.718;2022-09-21T15:56:24;14.70;;;3.33;;
13927;SDS011;7036;50.834;4.718;2022-09-21T15:58:50;12.00;;;2.93;;
13927;SDS011;7036;50.834;4.718;2022-09-21T16:01:18;11.77;;;2.80;;
13927;SDS011;7036;50.834;4.718;2022-09-21T16:03:44;13.15;;;3.15;;
13927;SDS011;7036;50.834;4.718;2022-09-21T16:08:51;14.87;;;2.90;;
13927;SDS011;7036;50.834;4.718;2022-09-21T16:19:43;14.40;;;4.03;;
13927;SDS011;7036;50.834;4.718;2022-09-21T16:22:12;20.88;;;4.32;;
13927;SDS011;7036;50.834;4.718;2022-09-21T16:24:42;25.50;;;4.47;;
13927;SDS011;7036;50.834;4.718;2022-09-21T16:27:04;11.93;;;3.20;;
13927;SDS011;7036;50.834;4.718;2022-09-21T16:29:38;26.05;;;4.72;;
13927;SDS011;7036;50.834;4.718;2022-09-21T16:34:43;13.80;;;2.80;;
13927;SDS011;7036;50.834;4.718;2022-09-21T16:39:57;21.43;;;3.77;;
13927;SDS011;7036;50.834;4.718;2022-09-21T16:42:24;16.70;;;3.83;;
13927;SDS011;7036;50.834;4.718;2022-09-21T16:44:50;21.23;;;2.63;;
13927;SDS011;7036;50.834;4.718;2022-09-21T16:47:19;12.37;;;3.07;;
13927;SDS011;7036;50.834;4.718;2022-09-21T16:49:45;26.33;;;4.53;;
13927;SDS011;7036;50.834;4.718;2022-09-21T16:52:14;16.90;;;3.25;;
13927;SDS011;7036;50.834;4.718;2022-09-21T16:54:40;15.30;;;3.10;;
13927;SDS011;7036;50.834;4.718;2022-09-21T16:57:09;12.68;;;3.28;;
13927;SDS011;7036;50.834;4.718;2022-09-21T16:59:35;10.88;;;3.22;;
13927;SDS011;7036;50.834;4.718;2022-09-21T17:02:03;17.50;;;3.63;;
13927;SDS011;7036;50.834;4.718;2022-09-21T17:04:32;8.35;;;2.85;;
13927;SDS011;7036;50.834;4.718;2022-09-21T17:06:58;16.10;;;3.57;;
13927;SDS011;7036;50.834;4.718;2022-09-21T17:09:32;8.88;;;3.30;;
13927;SDS011;7036;50.834;4.718;2022-09-21T17:11:58;9.93;;;2.77;;
13927;SDS011;7036;50.834;4.718;2022-09-21T17:14:26;14.20;;;3.28;;
13927;SDS011;7036;50.834;4.718;2022-09-21T17:16:53;15.10;;;3.17;;
13927;SDS011;7036;50.834;4.718;2022-09-21T17:19:21;27.55;;;4.20;;
13927;SDS011;7036;50.834;4.718;2022-09-21T17:21:48;22.37;;;3.83;;
13927;SDS011;7036;50.834;4.718;2022-09-21T17:24:15;16.75;;;3.80;;
13927;SDS011;7036;50.834;4.718;2022-09-21T17:26:43;16.80;;;3.97;;
13927;SDS011;7036;50.834;4.718;2022-09-21T17:29:16;18.73;;;3.67;;
13927;SDS011;7036;50.834;4.718;2022-09-21T17:31:38;9.43;;;2.97;;
13927;SDS011;7036;50.834;4.718;2022-09-21T17:34:08;16.80;;;3.70;;
13927;SDS011;7036;50.834;4.718;2022-09-21T17:36:34;15.07;;;3.20;;
13927;SDS011;7036;50.834;4.718;2022-09-21T17:39:02;27.95;;;3.67;;
13927;SDS011;7036;50.834;4.718;2022-09-21T17:42:13;17.20;;;3.67;;
13927;SDS011;7036;50.834;4.718;2022-09-21T17:44:16;10.40;;;2.53;;